Time;durP1;ratioP1;P1;durP2;ratioP2;P2;SDS_P1;SDS_P2;PMS_P1;PMS_P2;Temp;Humidity;BMP_temperature;BMP_pressure;BME280_temperature;BME280_humidity;BME280_pressure;Samples;Min_cycle;Max_cycle;Signal;HPM_P1;HPM_P2
2021/11/09 00:01:49;;;;;;;;;58.00;43.00;;;;;16.28;100.00;102069.22;5036081;28;45439;-85
2021/11/09 00:04:14;;;;;;;;;51.00;41.00;;;;;16.34;100.00;102068.78;5051032;28;45312;-86
2021/11/09 00:06:42;;;;;;;;;59.50;44.75;;;;;16.40;100.00;102065.69;5051276;28;45466;-85
2021/11/09 00:09:12;;;;;;;;;59.50;45.25;;;;;16.39;100.00;102062.16;5056236;28;45230;-85
2021/11/09 00:11:38;;;;;;;;;56.50;44.75;;;;;16.42;100.00;102058.44;5032585;28;45510;-85
2021/11/09 00:14:04;;;;;;;;;59.00;45.75;;;;;16.49;100.00;102057.03;5058563;28;45358;-86
2021/11/09 00:16:30;;;;;;;;;64.75;47.25;;;;;16.56;100.00;102057.47;5045279;28;45454;-86
2021/11/09 00:18:58;;;;;;;;;58.25;47.25;;;;;16.52;100.00;102053.28;5060099;28;45436;-87
2021/11/09 00:21:23;;;;;;;;;64.50;48.25;;;;;16.52;100.00;102051.50;5047531;28;45552;-85
2021/11/09 00:23:49;;;;;;;;;66.75;48.75;;;;;16.50;100.00;102041.88;5039733;28;45466;-85
2021/11/09 00:26:16;;;;;;;;;63.75;45.75;;;;;16.51;100.00;102047.09;5061075;28;46137;-85
2021/11/09 00:28:42;;;;;;;;;61.50;47.75;;;;;16.24;100.00;102033.06;5039583;28;46073;-84
2021/11/09 00:31:08;;;;;;;;;58.75;47.25;;;;;16.28;100.00;102040.75;5045066;28;45567;-85
2021/11/09 00:33:33;;;;;;;;;64.50;47.25;;;;;16.41;100.00;102044.25;5053139;28;45507;-85
2021/11/09 00:35:59;;;;;;;;;59.25;46.25;;;;;16.45;100.00;102044.91;5050462;28;46217;-85
2021/11/09 00:38:24;;;;;;;;;60.00;43.00;;;;;16.43;100.00;102044.16;5024164;28;45342;-85
2021/11/09 00:40:50;;;;;;;;;62.75;44.50;;;;;16.38;100.00;102040.97;5042219;28;45513;-86
2021/11/09 00:43:18;;;;;;;;;63.00;46.75;;;;;16.41;100.00;102035.41;5051249;28;45404;-86
2021/11/09 00:45:44;;;;;;;;;58.75;46.50;;;;;16.34;100.00;102026.13;5060028;28;45517;-86
2021/11/09 00:48:10;;;;;;;;;63.50;48.25;;;;;16.43;100.00;102034.34;5023163;28;45293;-86
2021/11/09 00:50:38;;;;;;;;;62.50;45.75;;;;;16.46;100.00;102033.28;5025480;28;45524;-86
2021/11/09 00:53:05;;;;;;;;;61.00;46.75;;;;;16.47;100.00;102032.31;5061344;28;45359;-86
2021/11/09 00:55:31;;;;;;;;;59.00;47.00;;;;;16.40;100.00;102036.34;5045788;28;47371;-86
2021/11/09 00:57:56;;;;;;;;;62.25;45.75;;;;;16.34;100.00;102027.00;5048992;28;45149;-86
2021/11/09 01:00:26;;;;;;;;;60.50;43.00;;;;;16.43;100.00;102041.47;5046373;28;45341;-86
2021/11/09 01:02:52;;;;;;;;;55.25;44.00;;;;;16.23;100.00;102037.56;5051666;28;45271;-86
2021/11/09 01:05:22;;;;;;;;;60.50;46.00;;;;;16.09;100.00;102048.34;5042093;28;47439;-87
2021/11/09 01:07:57;;;;;;;;;57.50;45.75;;;;;16.08;100.00;102041.31;5025530;28;46889;-86
2021/11/09 01:10:27;;;;;;;;;59.75;45.50;;;;;15.98;100.00;102045.56;5042680;28;45482;-86
2021/11/09 01:12:53;;;;;;;;;58.75;44.50;;;;;15.99;100.00;102053.47;5056051;28;45519;-86
2021/11/09 01:15:19;;;;;;;;;60.50;45.50;;;;;16.15;100.00;102053.25;5061052;28;45543;-86
2021/11/09 01:17:46;;;;;;;;;53.75;39.00;;;;;16.16;100.00;102048.75;5060517;28;45899;-86
2021/11/09 01:20:16;;;;;;;;;61.75;46.75;;;;;16.23;100.00;102044.69;5028861;28;45427;-86
2021/11/09 01:22:45;;;;;;;;;58.50;42.25;;;;;16.13;100.00;102040.97;5055660;28;45468;-86
2021/11/09 01:25:10;;;;;;;;;65.00;47.25;;;;;16.14;100.00;102054.19;5064107;28;46645;-86
2021/11/09 01:27:36;;;;;;;;;58.75;45.50;;;;;16.08;100.00;102047.50;5042165;28;45427;-86
2021/11/09 01:30:05;;;;;;;;;57.50;44.25;;;;;16.20;100.00;102044.94;5053253;28;46458;-87
2021/11/09 01:32:31;;;;;;;;;53.75;38.50;;;;;16.12;100.00;102058.78;5044267;28;45408;-86
2021/11/09 01:34:56;;;;;;;;;59.25;45.00;;;;;16.13;100.00;102055.16;5038397;28;47991;-86
2021/11/09 01:37:21;;;;;;;;;57.50;45.00;;;;;16.08;100.00;102054.63;5050157;28;45304;-86
2021/11/09 01:39:47;;;;;;;;;59.00;47.25;;;;;16.11;100.00;102057.09;5042638;28;45301;-86
2021/11/09 01:42:12;;;;;;;;;55.75;43.25;;;;;16.25;100.00;102056.09;5040996;28;45337;-86
2021/11/09 01:44:38;;;;;;;;;60.00;46.00;;;;;16.27;100.00;102065.72;5053418;28;45442;-86
2021/11/09 01:47:03;;;;;;;;;57.25;45.50;;;;;16.28;100.00;102062.09;5031261;28;46141;-85
2021/11/09 01:49:29;;;;;;;;;66.25;47.75;;;;;16.30;100.00;102060.16;5059925;28;45525;-86
2021/11/09 01:51:54;;;;;;;;;57.25;45.75;;;;;16.14;100.00;102062.19;5033786;28;45606;-86
2021/11/09 01:54:20;;;;;;;;;56.75;45.00;;;;;16.02;100.00;102068.41;5041186;28;45680;-86
2021/11/09 01:56:46;;;;;;;;;65.50;47.75;;;;;16.00;100.00;102065.84;5052210;28;45412;-86
2021/11/09 01:59:12;;;;;;;;;64.00;46.75;;;;;16.30;100.00;102060.16;5053510;28;45411;-86
2021/11/09 02:01:37;;;;;;;;;66.00;46.75;;;;;16.34;100.00;102047.47;5031909;28;45516;-86
2021/11/09 02:04:07;;;;;;;;;58.75;47.50;;;;;16.43;100.00;102053.00;5032821;28;48358;-85
2021/11/09 02:06:33;;;;;;;;;49.00;42.75;;;;;16.37;100.00;102052.59;5053285;28;46102;-85
2021/11/09 02:09:10;;;;;;;;;60.25;45.75;;;;;16.44;100.00;102048.53;5054353;28;45577;-85
2021/11/09 02:11:36;;;;;;;;;62.50;49.00;;;;;16.29;100.00;102055.81;5026155;28;45676;-85
2021/11/09 02:14:03;;;;;;;;;58.75;47.25;;;;;16.41;100.00;102054.06;5062126;28;45552;-85
2021/11/09 02:16:29;;;;;;;;;66.25;49.50;;;;;16.29;100.00;102050.47;5056435;28;45295;-85
2021/11/09 02:18:54;;;;;;;;;73.00;50.75;;;;;16.29;100.00;102054.94;5046922;28;45351;-85
2021/11/09 02:21:20;;;;;;;;;66.00;50.75;;;;;16.40;100.00;102055.00;5042803;28;45644;-86
2021/11/09 02:23:47;;;;;;;;;62.25;49.75;;;;;16.25;100.00;102054.31;5022170;28;47959;-85
2021/11/09 02:26:15;;;;;;;;;66.00;49.50;;;;;16.23;100.00;102056.22;5040677;28;45997;-86
2021/11/09 02:28:42;;;;;;;;;67.75;49.25;;;;;16.29;100.00;102061.13;5033241;28;45488;-86
2021/11/09 02:31:09;;;;;;;;;68.25;48.00;;;;;16.21;100.00;102068.78;5049870;28;45436;-86
2021/11/09 02:33:35;;;;;;;;;69.50;53.50;;;;;16.31;100.00;102069.84;5050727;28;45422;-86
2021/11/09 02:36:00;;;;;;;;;69.00;52.50;;;;;16.39;100.00;102070.16;5041016;28;45522;-86
2021/11/09 02:38:27;;;;;;;;;67.75;51.25;;;;;16.41;100.00;102070.06;5056290;28;45930;-88
2021/11/09 02:40:53;;;;;;;;;64.00;49.75;;;;;16.35;100.00;102071.34;5055560;28;45462;-88
2021/11/09 02:43:18;;;;;;;;;72.25;54.00;;;;;16.41;100.00;102076.25;5039273;28;46968;-86
2021/11/09 02:48:27;;;;;;;;;76.50;55.50;;;;;16.12;100.00;102079.22;5057914;28;45439;-85
2021/11/09 02:51:07;;;;;;;;;74.00;53.50;;;;;16.12;100.00;102081.91;5050655;28;45355;-86
2021/11/09 02:53:37;;;;;;;;;67.25;53.50;;;;;16.01;100.00;102072.00;5045767;28;45462;-85
2021/11/09 02:59:20;;;;;;;;;73.00;54.75;;;;;15.75;100.00;102068.44;4964493;28;45728;-86
2021/11/09 03:02:00;;;;;;;;;69.00;54.00;;;;;15.89;100.00;102081.69;4955660;28;45552;-86
2021/11/09 03:04:47;;;;;;;;;73.50;55.25;;;;;15.78;100.00;102078.06;5028000;28;45501;-86
2021/11/09 03:07:24;;;;;;;;;75.50;53.25;;;;;15.75;100.00;102072.94;5029929;28;46073;-86
2021/11/09 03:12:20;;;;;;;;;70.50;55.00;;;;;15.83;100.00;102082.13;5049285;28;45454;-87
2021/11/09 03:14:46;;;;;;;;;71.75;52.75;;;;;15.82;100.00;102068.91;5062962;28;45296;-86
2021/11/09 03:17:16;;;;;;;;;71.25;52.00;;;;;15.78;100.00;102067.41;5040465;28;45367;-86
2021/11/09 03:19:47;;;;;;;;;72.50;53.00;;;;;15.70;100.00;102063.44;5037046;28;45480;-86
2021/11/09 03:44:19;;;;;;;;;68.75;52.75;;;;;15.53;100.00;102071.69;5061922;28;45327;-86
2021/11/09 03:46:48;;;;;;;;;71.50;53.75;;;;;15.60;100.00;102075.69;5061948;28;45920;-86
2021/11/09 03:49:15;;;;;;;;;77.00;54.00;;;;;15.53;100.00;102069.03;5044102;28;46001;-86
2021/11/09 03:51:41;;;;;;;;;68.50;51.50;;;;;15.52;100.00;102069.13;5038781;28;45371;-86
2021/11/09 03:54:12;;;;;;;;;70.25;54.50;;;;;15.52;100.00;102070.00;5053690;28;45477;-87
2021/11/09 03:59:06;;;;;;;;;75.00;53.00;;;;;15.39;100.00;102061.09;5061570;28;45466;-87
2021/11/09 04:01:40;;;;;;;;;75.50;54.00;;;;;15.37;100.00;102065.69;5055446;28;45421;-86
2021/11/09 04:04:35;;;;;;;;;72.50;53.25;;;;;15.30;100.00;102059.91;5042236;28;45446;-87
2021/11/09 04:07:03;;;;;;;;;70.25;53.50;;;;;15.50;100.00;102066.56;5054945;28;46269;-86
2021/11/09 04:09:48;;;;;;;;;68.25;53.25;;;;;15.43;100.00;102070.59;5047446;28;45468;-86
2021/11/09 04:15:06;;;;;;;;;70.50;53.50;;;;;15.39;100.00;102073.59;5042361;28;45456;-87
2021/11/09 04:20:27;;;;;;;;;73.00;52.25;;;;;15.41;100.00;102084.97;5060458;28;45981;-87
2021/11/09 04:48:11;;;;;;;;;70.50;55.75;;;;;15.20;100.00;102084.59;5049182;28;45652;-86
2021/11/09 05:08:52;;;;;;;;;76.50;55.25;;;;;14.94;100.00;102112.84;5042424;28;45407;-87
2021/11/09 05:11:18;;;;;;;;;74.25;54.00;;;;;14.94;100.00;102099.56;5033955;28;48029;-87
2021/11/09 05:13:43;;;;;;;;;73.25;55.50;;;;;15.00;100.00;102090.34;5031784;28;45390;-87
2021/11/09 05:16:09;;;;;;;;;72.00;53.75;;;;;14.98;100.00;102096.63;5023466;28;45499;-87
2021/11/09 05:18:34;;;;;;;;;75.75;57.00;;;;;14.86;100.00;102099.19;5023583;28;45513;-87
2021/11/09 05:21:00;;;;;;;;;70.75;53.00;;;;;14.88;100.00;102107.94;5042934;28;48027;-87
2021/11/09 05:23:26;;;;;;;;;77.25;56.25;;;;;14.89;100.00;102109.66;5063311;28;45482;-87
2021/11/09 05:25:52;;;;;;;;;69.25;55.25;;;;;14.89;100.00;102113.16;5059554;28;45413;-87
2021/11/09 05:28:18;;;;;;;;;76.75;59.00;;;;;14.92;100.00;102114.78;5052260;28;45351;-87
2021/11/09 05:30:51;;;;;;;;;78.75;56.00;;;;;14.94;100.00;102124.34;5031996;28;47241;-87
2021/11/09 05:33:18;;;;;;;;;73.75;55.75;;;;;14.90;100.00;102119.34;5039631;28;45610;-86
2021/11/09 05:35:45;;;;;;;;;70.50;53.75;;;;;14.86;100.00;102121.34;5042992;28;45237;-86
2021/11/09 05:38:13;;;;;;;;;76.25;56.75;;;;;15.00;100.00;102135.56;5054245;28;45493;-87
2021/11/09 05:40:41;;;;;;;;;75.75;56.50;;;;;14.66;100.00;102127.03;5055524;28;45587;-87
2021/11/09 05:43:08;;;;;;;;;73.25;56.00;;;;;14.66;100.00;102132.38;5050337;28;45829;-87
2021/11/09 05:45:34;;;;;;;;;76.75;56.25;;;;;14.63;100.00;102129.06;5041851;28;45171;-87
2021/11/09 05:47:59;;;;;;;;;70.25;55.00;;;;;14.66;100.00;102136.84;5022730;28;45869;-87
2021/11/09 05:50:27;;;;;;;;;74.75;56.75;;;;;14.66;100.00;102127.03;5040501;28;45312;-86
2021/11/09 05:52:53;;;;;;;;;73.75;53.50;;;;;14.48;100.00;102128.19;5026343;28;45425;-87
2021/11/09 05:55:18;;;;;;;;;76.00;55.00;;;;;14.49;100.00;102136.06;5039025;28;45431;-88
2021/11/09 05:57:44;;;;;;;;;69.00;53.00;;;;;14.61;100.00;102129.16;5070963;28;45548;-87
2021/11/09 06:00:11;;;;;;;;;69.75;52.00;;;;;14.69;100.00;102136.66;5063760;28;46507;-86
2021/11/09 06:02:37;;;;;;;;;67.25;51.75;;;;;14.57;100.00;102146.22;5026693;28;45336;-87
2021/11/09 06:05:05;;;;;;;;;66.00;50.50;;;;;14.57;100.00;102152.41;5055829;28;45472;-88
2021/11/09 06:07:30;;;;;;;;;65.25;50.50;;;;;14.57;100.00;102152.41;5040555;28;45632;-88
2021/11/09 06:09:56;;;;;;;;;68.25;48.25;;;;;14.54;100.00;102157.94;5033284;28;48229;-88
2021/11/09 06:12:21;;;;;;;;;62.25;48.50;;;;;14.42;100.00;102155.16;5031964;28;45294;-89
2021/11/09 06:14:47;;;;;;;;;64.00;47.00;;;;;14.39;100.00;102150.00;5044373;28;45348;-90
2021/11/09 06:17:12;;;;;;;;;64.00;48.00;;;;;14.37;100.00;102162.53;5049448;28;45367;-92
2021/11/09 06:19:38;;;;;;;;;61.50;48.00;;;;;14.43;100.00;102163.03;5052650;28;47373;-89
2021/11/09 06:22:04;;;;;;;;;60.00;46.00;;;;;14.40;100.00;102167.69;5053552;28;45376;-88
2021/11/09 06:24:30;;;;;;;;;59.75;47.00;;;;;14.31;100.00;102169.06;5037894;28;45450;-86
2021/11/09 06:26:56;;;;;;;;;56.50;46.00;;;;;14.32;100.00;102172.56;5041476;28;45338;-87
2021/11/09 06:29:21;;;;;;;;;54.75;43.00;;;;;14.24;100.00;102171.25;5026196;28;46372;-88
2021/11/09 06:31:49;;;;;;;;;59.75;41.75;;;;;14.19;100.00;102169.81;5049788;28;45543;-89
2021/11/09 06:34:14;;;;;;;;;57.00;41.50;;;;;14.26;100.00;102170.28;5033508;28;45352;-87
2021/11/09 06:36:39;;;;;;;;;57.75;41.75;;;;;14.37;100.00;102166.06;5041563;28;45365;-86
2021/11/09 06:39:05;;;;;;;;;63.00;44.25;;;;;14.26;100.00;102179.13;5053932;28;45344;-83
2021/11/09 06:41:31;;;;;;;;;57.50;43.25;;;;;14.27;100.00;102177.31;5035196;28;45994;-87
2021/11/09 06:43:56;;;;;;;;;50.75;41.50;;;;;14.24;100.00;102179.22;5032736;28;45850;-88
2021/11/09 06:46:22;;;;;;;;;52.75;41.00;;;;;14.28;100.00;102179.03;5057605;28;45326;-89
2021/11/09 06:48:47;;;;;;;;;57.50;40.75;;;;;14.26;100.00;102188.88;5034071;28;47072;-88
2021/11/09 06:51:17;;;;;;;;;50.75;41.25;;;;;14.34;100.00;102194.59;5057148;28;45578;-86
2021/11/09 06:53:43;;;;;;;;;55.75;40.25;;;;;14.32;100.00;102192.03;5063717;28;45374;-86
2021/11/09 06:56:08;;;;;;;;;51.75;42.00;;;;;14.32;100.00;102192.03;5044936;28;45398;-90
2021/11/09 06:58:35;;;;;;;;;53.50;43.25;;;;;14.41;100.00;102191.50;5055101;28;46264;-88
2021/11/09 07:01:02;;;;;;;;;45.25;40.75;;;;;14.36;100.00;102185.59;5033183;28;45344;-87
2021/11/09 07:03:27;;;;;;;;;55.25;42.00;;;;;14.35;100.00;102185.69;5035872;28;45338;-87
2021/11/09 07:05:53;;;;;;;;;54.25;43.25;;;;;14.36;100.00;102192.72;5046424;28;45400;-89
2021/11/09 07:08:18;;;;;;;;;60.25;44.00;;;;;14.34;100.00;102191.94;5064496;28;46100;-85
2021/11/09 07:10:44;;;;;;;;;61.75;42.75;;;;;14.42;100.00;102192.38;5052586;28;45735;-87
2021/11/09 07:13:10;;;;;;;;;58.00;40.25;;;;;14.40;100.00;102184.47;5058101;28;45392;-86
2021/11/09 07:15:36;;;;;;;;;50.00;39.25;;;;;14.43;100.00;102199.41;5047779;28;45495;-88
2021/11/09 07:18:01;;;;;;;;;45.75;33.75;;;;;14.38;100.00;102191.69;5048867;28;47582;-87
2021/11/09 07:20:27;;;;;;;;;44.25;34.00;;;;;14.51;100.00;102200.63;5076847;28;45454;-88
2021/11/09 07:22:52;;;;;;;;;43.00;34.00;;;;;14.54;100.00;102197.81;5044755;28;45367;-88
2021/11/09 07:25:18;;;;;;;;;45.50;34.75;;;;;14.55;100.00;102201.31;5068113;28;45442;-88
2021/11/09 07:27:46;;;;;;;;;44.50;35.00;;;;;14.61;100.00;102195.63;5054757;28;46999;-88
2021/11/09 07:30:12;;;;;;;;;57.50;42.00;;;;;14.68;100.00;102210.22;5077737;28;45280;-89
2021/11/09 07:32:38;;;;;;;;;42.75;38.25;;;;;14.64;100.00;102205.22;5047715;28;45396;-88
2021/11/09 07:35:10;;;;;;;;;31.25;23.75;;;;;14.57;100.00;102202.91;5044864;28;45348;-93
2021/11/09 07:37:36;;;;;;;;;50.50;37.50;;;;;14.49;100.00;102210.50;5076959;27;47082;-92
2021/11/09 07:40:02;;;;;;;;;43.50;37.00;;;;;14.59;100.00;102205.47;5042174;28;45598;-90
2021/11/09 07:42:27;;;;;;;;;44.00;38.25;;;;;14.59;100.00;102205.47;5062768;28;45401;-89
2021/11/09 07:44:53;;;;;;;;;48.25;39.25;;;;;14.67;100.00;102211.19;5044590;28;45383;-90
2021/11/09 07:47:18;;;;;;;;;54.75;40.00;;;;;14.68;100.00;102218.22;5031007;28;47831;-90
2021/11/09 07:49:45;;;;;;;;;55.75;41.00;;;;;14.72;100.00;102226.88;5063097;28;45452;-89
2021/11/09 07:52:11;;;;;;;;;47.00;38.50;;;;;14.67;100.00;102224.47;5030708;28;45400;-90
2021/11/09 07:54:39;;;;;;;;;53.75;39.25;;;;;14.70;100.00;102226.09;5057823;28;45396;-90
2021/11/09 07:57:11;;;;;;;;;46.00;39.00;;;;;14.71;100.00;102226.00;5073821;28;45720;-90
2021/11/09 07:59:59;;;;;;;;;53.50;39.25;;;;;14.78;100.00;102232.66;5063600;28;45369;-89
2021/11/09 08:02:31;;;;;;;;;49.75;36.50;;;;;14.81;100.00;102227.16;5051441;28;45244;-89
2021/11/09 08:05:01;;;;;;;;;48.00;39.00;;;;;14.89;100.00;102227.53;5062925;28;45909;-90
2021/11/09 08:07:31;;;;;;;;;53.25;39.00;;;;;15.01;100.00;102227.72;5065093;28;45406;-89
2021/11/09 08:09:56;;;;;;;;;51.25;39.00;;;;;15.04;100.00;102227.53;5031154;28;46066;-89
2021/11/09 08:12:22;;;;;;;;;56.25;41.75;;;;;15.12;100.00;102225.22;5044585;28;45462;-89
2021/11/09 08:14:47;;;;;;;;;52.50;40.00;;;;;15.23;100.00;102236.06;5061241;28;45589;-90
2021/11/09 08:17:15;;;;;;;;;49.75;40.00;;;;;15.29;100.00;102235.69;5043844;28;47536;-89
2021/11/09 08:19:40;;;;;;;;;49.00;40.25;;;;;15.39;100.00;102230.63;5072184;28;45224;-89
2021/11/09 08:22:06;;;;;;;;;56.50;40.00;;;;;15.52;100.00;102231.53;5063323;28;45358;-89
2021/11/09 08:24:32;;;;;;;;;58.50;42.75;;;;;15.48;100.00;102232.72;5050013;28;45257;-90
2021/11/09 08:26:59;;;;;;;;;57.00;43.00;;;;;15.64;100.00;102233.44;5024330;28;47426;-90
2021/11/09 08:29:28;;;;;;;;;55.25;40.25;;;;;15.62;100.00;102230.03;5025408;28;45799;-89
2021/11/09 08:31:56;;;;;;;;;47.75;39.00;;;;;15.71;100.00;102242.75;5027618;28;45294;-90
2021/11/09 08:34:22;;;;;;;;;51.50;38.25;;;;;15.74;100.00;102239.88;5072508;28;45166;-89
2021/11/09 08:36:49;;;;;;;;;55.25;39.75;;;;;15.68;100.00;102243.78;5039924;28;47263;-90
2021/11/09 08:39:23;;;;;;;;;47.75;38.50;;;;;15.67;100.00;102241.22;5043494;28;45740;-89
2021/11/09 08:41:59;;;;;;;;;46.00;39.00;;;;;15.72;100.00;102241.78;5033289;28;45514;-89
2021/11/09 08:44:26;;;;;;;;;56.75;39.50;;;;;16.08;100.00;102238.50;5060856;28;45415;-89
2021/11/09 08:46:56;;;;;;;;;46.00;38.00;;;;;16.95;100.00;102244.03;5034267;28;47253;-89
2021/11/09 08:49:24;;;;;;;;;47.50;37.50;;;;;17.88;100.00;102232.81;5042018;28;45198;-90
2021/11/09 08:51:54;;;;;;;;;44.75;35.25;;;;;18.74;100.00;102231.66;5034315;28;45351;-90
2021/11/09 08:54:23;;;;;;;;;42.50;33.75;;;;;18.94;98.58;102233.56;5040542;28;45523;-90
2021/11/09 08:56:59;;;;;;;;;38.75;30.50;;;;;18.63;96.65;102241.34;5034230;28;48331;-91
2021/11/09 09:04:57;;;;;;;;;43.75;30.25;;;;;18.03;95.99;102233.47;5062044;28;45426;-90
2021/11/09 09:07:24;;;;;;;;;37.50;28.25;;;;;17.98;94.73;102232.13;5048315;28;45494;-90
2021/11/09 09:09:49;;;;;;;;;44.00;31.25;;;;;17.87;94.15;102228.44;5036544;28;45249;-90
2021/11/09 09:12:15;;;;;;;;;29.50;26.50;;;;;17.87;94.56;102230.25;5049291;28;44698;-90
2021/11/09 09:14:40;;;;;;;;;39.00;33.50;;;;;17.86;94.00;102232.06;5052827;28;45249;-90
2021/11/09 09:17:06;;;;;;;;;35.50;31.75;;;;;17.71;93.55;102233.22;5025004;28;47277;-89
2021/11/09 09:22:19;;;;;;;;;38.25;26.25;;;;;17.72;93.45;102232.25;5049206;28;45464;-90
2021/11/09 09:56:18;;;;;;;;;30.00;18.75;;;;;19.38;86.22;102216.66;5051078;28;45434;-90
2021/11/09 09:58:44;;;;;;;;;36.25;29.25;;;;;19.67;86.78;102219.63;5029921;28;47197;-92
2021/11/09 10:01:10;;;;;;;;;32.75;26.50;;;;;19.91;86.06;102212.25;5043634;28;45237;-90
2021/11/09 10:03:38;;;;;;;;;30.50;28.25;;;;;20.10;84.75;102208.88;5048740;28;45408;-90
2021/11/09 10:06:06;;;;;;;;;27.50;23.50;;;;;20.40;83.83;102208.97;5062245;28;45322;-91
2021/11/09 10:08:47;;;;;;;;;30.75;25.75;;;;;20.81;80.78;102210.75;5046506;28;47507;-90
2021/11/09 10:11:36;;;;;;;;;34.50;27.75;;;;;21.03;74.86;102201.63;5037596;28;45806;-90
2021/11/09 10:14:04;;;;;;;;;32.00;24.50;;;;;20.94;79.47;102199.78;5063700;28;45253;-91
2021/11/09 10:16:30;;;;;;;;;29.75;26.00;;;;;21.02;77.85;102207.19;5079495;28;45166;-90
2021/11/09 10:18:56;;;;;;;;;27.75;23.25;;;;;20.99;77.17;102200.22;5051884;28;48274;-90
2021/11/09 10:21:39;;;;;;;;;39.50;26.50;;;;;21.30;72.47;102203.75;5070225;28;45217;-90
2021/11/09 10:24:24;;;;;;;;;31.50;23.75;;;;;21.31;74.56;102197.38;5044285;28;44664;-90
2021/11/09 10:26:50;;;;;;;;;37.25;29.50;;;;;21.31;70.94;102191.16;5082936;27;44790;-91
2021/11/09 10:29:15;;;;;;;;;37.00;31.50;;;;;21.35;72.33;102201.50;5082635;28;45289;-91
2021/11/09 10:31:42;;;;;;;;;39.00;27.25;;;;;21.46;72.68;102189.78;5066119;28;45171;-91
2021/11/09 10:34:29;;;;;;;;;29.25;23.25;;;;;21.64;72.65;102191.66;5040908;28;44781;-91
2021/11/09 10:37:15;;;;;;;;;30.50;25.50;;;;;21.61;70.69;102181.16;5035233;28;45371;-90
2021/11/09 10:39:43;;;;;;;;;33.00;24.50;;;;;21.72;69.94;102182.88;5047371;28;45544;-90
2021/11/09 10:42:19;;;;;;;;;27.75;24.25;;;;;21.79;69.28;102181.31;5023416;28;45750;-91
2021/11/09 10:45:10;;;;;;;;;33.75;28.25;;;;;21.97;69.58;102189.50;5058179;28;45281;-90
2021/11/09 10:47:38;;;;;;;;;29.75;22.25;;;;;22.06;70.27;102183.31;5048130;28;45636;-91
2021/11/09 10:50:15;;;;;;;;;27.00;24.00;;;;;22.21;69.56;102181.91;5029583;28;47152;-90
2021/11/09 10:52:42;;;;;;;;;25.50;21.50;;;;;22.36;71.02;102187.66;5062031;28;45317;-90
2021/11/09 10:55:23;;;;;;;;;34.50;27.25;;;;;22.32;70.42;102181.72;5043872;28;45300;-90
2021/11/09 11:06:13;;;;;;;;;20.00;15.75;;;;;22.79;66.97;102170.97;5052539;28;45299;-91
2021/11/09 11:08:40;;;;;;;;;17.75;14.75;;;;;22.94;67.95;102156.03;5033157;28;45455;-90
2021/11/09 11:11:15;;;;;;;;;21.50;18.00;;;;;23.27;66.07;102153.69;5042420;28;46271;-90
2021/11/09 11:13:41;;;;;;;;;23.50;16.75;;;;;23.19;66.04;102156.31;5049348;28;45428;-91
2021/11/09 11:16:10;;;;;;;;;17.50;15.50;;;;;23.22;63.99;102156.00;5061943;28;45259;-91
2021/11/09 11:18:42;;;;;;;;;23.00;18.75;;;;;23.25;64.01;102155.69;5042020;28;45573;-91
2021/11/09 11:21:10;;;;;;;;;26.25;20.25;;;;;23.16;61.11;102162.84;5068460;28;45421;-90
2021/11/09 11:23:36;;;;;;;;;21.50;18.00;;;;;23.12;61.31;102156.91;5043096;28;45321;-91
2021/11/09 11:26:04;;;;;;;;;25.50;18.75;;;;;23.23;62.93;102150.44;5043567;28;45448;-91
2021/11/09 11:28:31;;;;;;;;;28.00;24.75;;;;;23.43;61.05;102141.22;5042418;28;45159;-91
2021/11/09 11:30:59;;;;;;;;;26.50;21.25;;;;;23.84;60.53;102134.41;5035127;28;47701;-90
2021/11/09 11:33:25;;;;;;;;;29.25;19.25;;;;;23.82;58.64;102141.81;5042597;28;45593;-91
2021/11/09 11:35:51;;;;;;;;;28.25;21.25;;;;;23.70;57.75;102136.78;5043008;28;45423;-91
2021/11/09 11:38:22;;;;;;;;;27.75;22.25;;;;;23.69;57.74;102129.69;5036555;28;45285;-91
2021/11/09 11:40:50;;;;;;;;;28.25;24.00;;;;;23.69;57.59;102133.25;5023280;28;47389;-91
2021/11/09 11:43:41;;;;;;;;;28.50;25.50;;;;;23.66;56.91;102120.09;5031764;28;45416;-92
2021/11/09 11:46:06;;;;;;;;;29.25;23.50;;;;;23.60;56.22;102118.00;5042738;28;45245;-91
2021/11/09 11:49:00;;;;;;;;;26.50;21.00;;;;;23.61;56.47;102121.53;5053551;28;45215;-90
2021/11/09 11:51:28;;;;;;;;;23.00;21.00;;;;;23.46;55.49;102110.44;5035009;28;47151;-90
2021/11/09 11:53:54;;;;;;;;;24.25;20.50;;;;;23.45;56.39;102101.50;5050203;28;45419;-91
2021/11/09 11:56:38;;;;;;;;;27.00;19.25;;;;;23.63;54.78;102108.75;5035506;28;45424;-90
2021/11/09 11:59:04;;;;;;;;;27.25;26.75;;;;;23.31;55.07;102093.91;5061117;28;45489;-90
2021/11/09 12:01:42;;;;;;;;;25.00;23.00;;;;;23.46;56.49;102100.50;5054421;28;46469;-90
2021/11/09 12:04:09;;;;;;;;;30.00;23.25;;;;;23.52;56.79;102103.59;5026552;28;45464;-90
2021/11/09 12:06:51;;;;;;;;;36.25;27.00;;;;;23.63;55.90;102104.22;5055378;28;45245;-90
2021/11/09 12:09:32;;;;;;;;;25.00;23.00;;;;;23.86;55.95;102097.31;5050276;28;45406;-90
2021/11/09 12:12:18;;;;;;;;;30.75;25.25;;;;;23.83;54.26;102086.84;5063342;28;45260;-90
2021/11/09 12:14:51;;;;;;;;;27.25;24.75;;;;;24.03;53.72;102090.19;5049046;28;45442;-89
2021/11/09 12:17:43;;;;;;;;;22.25;21.00;;;;;24.07;53.11;102088.00;5025996;28;45344;-90
2021/11/09 12:20:14;;;;;;;;;28.00;20.00;;;;;23.84;52.24;102077.75;5028974;28;45530;-90
2021/11/09 12:22:46;;;;;;;;;20.50;17.00;;;;;23.95;51.15;102068.53;5065191;28;45436;-90
2021/11/09 12:25:15;;;;;;;;;34.75;23.50;;;;;24.01;52.56;102075.16;5049439;28;45264;-90
2021/11/09 12:27:49;;;;;;;;;22.25;17.00;;;;;23.91;50.35;102075.25;5067444;28;45469;-90
2021/11/09 12:30:45;;;;;;;;;19.25;17.25;;;;;23.90;50.28;102070.00;5050563;28;45581;-90
2021/11/09 12:33:14;;;;;;;;;33.00;19.75;;;;;23.86;52.10;102064.06;5040918;28;47216;-90
2021/11/09 12:35:44;;;;;;;;;24.25;16.25;;;;;23.95;50.85;102064.97;5044536;28;45311;-91
2021/11/09 12:38:14;;;;;;;;;19.25;15.00;;;;;24.20;51.67;102066.84;5049159;28;45405;-91
2021/11/09 12:40:39;;;;;;;;;18.00;16.50;;;;;24.34;49.40;102060.00;5044411;28;45448;-90
2021/11/09 12:43:09;;;;;;;;;13.00;11.25;;;;;24.16;48.21;102057.34;5062102;28;46170;-90
2021/11/09 12:45:36;;;;;;;;;15.25;12.00;;;;;23.96;47.87;102059.44;5062039;28;45650;-89
2021/11/09 12:48:04;;;;;;;;;18.50;15.00;;;;;23.90;47.71;102060.06;5038113;28;45410;-89
2021/11/09 12:50:30;;;;;;;;;23.25;16.25;;;;;24.05;48.48;102063.03;5024613;28;46128;-90
2021/11/09 12:53:08;;;;;;;;;22.50;15.25;;;;;23.95;47.13;102062.28;5042737;28;45664;-89
2021/11/09 12:55:33;;;;;;;;;15.25;13.50;;;;;23.86;47.54;102054.13;5024417;28;45647;-89
2021/11/09 12:58:17;;;;;;;;;17.75;11.00;;;;;23.88;46.52;102053.97;5024949;28;45435;-89
2021/11/09 13:00:49;;;;;;;;;12.25;10.50;;;;;23.88;47.11;102054.81;5048711;28;45431;-89
2021/11/09 13:03:39;;;;;;;;;11.75;11.75;;;;;23.81;47.13;102051.06;5054914;28;46248;-89
2021/11/09 13:06:18;;;;;;;;;13.25;11.00;;;;;23.75;46.12;102053.56;5032373;28;45336;-89
2021/11/09 13:08:58;;;;;;;;;12.50;11.00;;;;;23.68;43.60;102047.09;5046252;28;45265;-89
2021/11/09 13:11:37;;;;;;;;;7.00;5.50;;;;;23.18;42.70;102044.13;5053159;28;45486;-90
2021/11/09 13:14:08;;;;;;;;;10.75;8.25;;;;;22.76;43.58;102044.69;5043742;28;47979;-89
2021/11/09 13:16:33;;;;;;;;;12.50;8.25;;;;;22.66;43.41;102039.34;5048065;28;45600;-89
2021/11/09 13:19:06;;;;;;;;;18.25;10.25;;;;;22.74;45.44;102044.84;5041275;28;45384;-89
2021/11/09 13:21:37;;;;;;;;;14.75;10.00;;;;;22.88;46.32;102038.09;5024109;28;45755;-90
2021/11/09 13:24:03;;;;;;;;;9.25;8.00;;;;;23.04;45.68;102042.78;5025880;28;47179;-89